Latest Weather Observations for Cape Otway

IDV60801

Issued at 6:05 pm EST Thursday 24 April 2014 (issued every 30 minutes, with the page automatically refreshed every 10 minutes)

About weather observations | Map of weather stations | Latest weather observations for VIC | Other Formats
Station Details ID: 090015 Name: CAPE OTWAY LIGHTHOUSE Lat: -38.86 Lon: 143.51 Height: 82.0 m
Data from the previous 72 hours. | See also: Recent months at Cape Otway
Date/Time
EST
Temp
°C
App
Temp
°C
Dew
Point
Rel
Hum
%
Delta-T
°C
Wind Press
QNH
hPa
Press
MSL
hPa
Rain
since 9 am
mm
Dir
 
Spd
km/h
Gust
km/h
Spd
kts
Gust
kts
24/06:00pm 12.5 6.9 3.5 54 4.0 SW 22 30 12 16 1019.5 1019.4 0.0
24/05:30pm 12.4 6.7 2.8 52 4.2 SW 22 30 12 16 1019.0 - 0.0
24/05:00pm 12.5 6.1 3.3 53 4.1 SW 26 37 14 20 1018.7 - 0.0
24/04:30pm 12.8 6.3 4.8 58 3.7 SW 28 39 15 21 1018.6 - 0.0
24/04:00pm 13.7 7.4 3.5 50 4.6 WSW 26 39 14 21 1018.4 - 0.0
24/03:30pm 13.4 7.5 3.9 52 4.3 WSW 24 35 13 19 1018.3 - 0.0
24/03:00pm 13.2 6.5 3.9 53 4.2 WSW 28 41 15 22 1018.1 1018.0 0.0
24/02:30pm 14.3 7.7 4.1 50 4.7 WSW 28 39 15 21 1017.9 - 0.0
24/02:00pm 13.3 6.0 4.6 55 4.0 WSW 32 46 17 25 1017.6 - 0.0
24/01:30pm 14.0 6.6 4.2 51 4.5 WSW 32 43 17 23 1017.3 - 0.0
24/01:00pm 12.7 7.4 6.7 67 2.9 W 24 32 13 17 1017.5 - 0.0
24/12:45pm 12.6 5.7 6.3 65 3.0 W 32 50 17 27 1017.4 - 0.0
24/12:42pm 12.7 6.6 6.4 65 3.0 W 28 41 15 22 1017.4 - 0.0
24/12:36pm 13.0 4.3 6.0 62 3.3 SW 41 50 22 27 1017.3 - 0.0
24/12:30pm 13.6 7.0 6.0 60 3.6 W 30 43 16 23 1017.3 - 0.0
24/12:06pm 12.0 4.8 6.1 67 2.8 W 33 52 18 28 1017.4 - 0.0
24/12:05pm 12.0 4.8 6.1 67 2.8 W 33 52 18 28 1017.4 - 0.0
24/12:00pm 12.1 3.9 6.7 69 2.6 WSW 39 52 21 28 1017.4 1017.3 0.0
24/11:44am 13.8 5.5 6.3 60 3.6 SW 39 57 21 31 1017.1 - 0.0
24/11:43am 13.8 6.3 6.3 60 3.6 WSW 35 57 19 31 1017.1 - 0.0
24/11:30am 13.6 6.1 4.5 54 4.2 W 33 46 18 25 1016.9 - 0.0
24/11:00am 12.9 4.5 5.4 60 3.5 WSW 39 57 21 31 1016.6 - 0.0
24/10:56am 13.0 4.5 5.3 59 3.6 SW 39 57 21 31 1016.5 - 0.0
24/10:55am 13.0 4.5 5.3 59 3.6 SW 39 57 21 31 1016.5 - 0.0
24/10:30am 13.6 4.8 3.4 50 4.6 WSW 39 54 21 29 1016.1 - 0.0
24/10:01am 13.4 4.7 4.0 53 4.3 WSW 39 57 21 31 1015.7 - 0.0
24/10:00am 13.2 4.5 4.0 53 4.2 WSW 39 56 21 30 1015.7 - 0.0
24/09:30am 13.4 4.1 2.8 48 4.7 WSW 41 61 22 33 1015.4 - 0.0
24/09:04am 13.3 3.9 2.4 47 4.8 WSW 41 59 22 32 1015.1 - 0.0
24/09:03am 13.3 3.9 2.4 47 4.8 WSW 41 59 22 32 1015.1 - 0.0
24/09:00am 13.3 3.4 1.5 44 5.1 WSW 43 59 23 32 1014.9 1014.8 1.8
24/08:30am 13.2 1.8 0.7 42 5.3 WSW 50 70 27 38 1014.3 - 1.8
24/08:00am 13.3 2.8 3.6 52 4.4 WSW 48 67 26 36 1013.3 - 1.8
24/07:35am 13.6 3.8 5.3 57 3.9 WSW 46 65 25 35 1012.6 - 1.8
24/07:34am 13.6 3.8 5.3 57 3.9 WSW 46 65 25 35 1012.6 - 1.8
24/07:30am 13.5 3.3 5.4 58 3.8 WSW 48 65 26 35 1012.4 - 1.8
24/07:09am 13.6 3.4 5.3 57 3.9 WSW 48 70 26 38 1011.7 - 1.8
24/07:08am 13.6 3.4 5.3 57 3.9 WSW 48 70 26 38 1011.7 - 1.8
24/07:00am 13.7 4.1 6.2 60 3.6 WSW 46 63 25 34 1011.5 - 1.8
24/06:30am 13.8 5.6 8.2 69 2.8 WSW 41 59 22 32 1011.0 - 1.8
24/06:17am 13.7 5.7 7.6 66 3.0 WSW 39 57 21 31 1010.7 - 1.8
24/06:16am 13.7 5.7 7.6 66 3.0 WSW 39 57 21 31 1010.7 - 1.8
24/06:00am 13.3 5.4 9.4 77 2.0 WSW 41 57 22 31 1010.3 1010.2 1.8
24/05:36am 12.6 5.6 11.1 91 0.8 WSW 39 57 21 31 1009.9 - 1.6
24/05:35am 12.6 5.6 11.1 91 0.8 WSW 39 57 21 31 1009.9 - 1.6
24/05:30am 12.6 4.6 11.1 91 0.8 WSW 44 57 24 31 1009.8 - 1.6
24/05:25am 12.7 4.3 11.0 89 0.9 WSW 46 57 25 31 1009.6 - 1.4
24/05:23am 13.5 7.4 11.6 88 1.0 W 35 63 19 34 1009.6 - 1.2
24/05:22am 13.5 7.4 11.6 88 1.0 W 35 63 19 34 1009.6 - 1.2
24/05:00am 13.5 6.7 11.8 89 0.9 W 39 54 21 29 1009.0 - 0.8
24/04:51am 13.7 6.1 11.8 88 1.0 W 43 61 23 33 1008.7 - 0.8
24/04:44am 13.6 6.0 11.7 88 1.0 W 43 67 23 36 1008.5 - 0.6
24/04:42am 13.9 6.2 12.1 89 1.0 W 44 74 24 40 1008.4 - 0.6
24/04:41am 14.1 5.3 12.1 88 1.1 W 50 61 27 33 1008.2 - 0.4
24/04:30am 14.4 7.0 11.2 81 1.7 NW 41 63 22 34 1007.3 - 0.0
24/04:00am 14.9 8.1 9.3 69 2.9 NW 35 57 19 31 1007.1 - 0.0
24/03:30am 14.8 7.8 8.5 66 3.2 NW 35 56 19 30 1007.0 - 0.0
24/03:00am 14.7 7.3 8.4 66 3.2 NW 37 59 20 32 1007.3 1007.2 0.0
24/02:30am 14.4 7.9 8.3 67 3.1 NW 32 56 17 30 1007.6 - 0.0
24/02:00am 14.2 8.3 8.9 70 2.7 NW 30 48 16 26 1008.1 - 0.0
24/01:30am 14.5 7.8 7.2 61 3.6 NW 32 50 17 27 1008.4 - 0.0
24/01:00am 14.6 8.4 6.1 56 4.1 NW 28 52 15 28 1008.7 - 0.0
24/12:30am 14.9 8.6 5.7 54 4.4 NW 28 50 15 27 1009.1 - 0.0
24/12:29am 14.9 8.6 5.7 54 4.4 NW 28 50 15 27 1009.1 - 0.0
24/12:00am 14.7 9.2 5.7 55 4.3 NW 24 37 13 20 1009.6 1009.5 0.0
 
Date/Time
EST
Temp
°C
App
Temp
°C
Dew
Point
Rel
Hum
%
Delta-T
°C
Wind Press
QNH
hPa
Press
MSL
hPa
Rain
since 9 am
mm
Dir
 
Spd
km/h
Gust
km/h
Spd
kts
Gust
kts
23/11:30pm 14.6 8.6 5.3 53 4.4 NW 26 41 14 22 1009.9 - 0.0
23/11:00pm 14.9 9.3 5.2 52 4.6 NW 24 39 13 21 1010.2 - 0.0
23/10:30pm 14.6 9.2 6.3 57 4.0 NW 24 35 13 19 1010.7 - 0.0
23/10:00pm 14.2 9.1 5.8 57 4.0 NNW 22 35 12 19 1010.9 - 0.0
23/09:30pm 13.2 8.8 6.6 64 3.2 N 19 28 10 15 1011.3 - 0.0
23/09:00pm 12.9 8.9 6.7 66 3.0 NNW 17 22 9 12 1011.5 1011.4 0.0
23/08:30pm 13.3 9.0 6.9 65 3.1 N 19 24 10 13 1011.7 - 0.0
23/08:00pm 13.5 9.6 6.9 64 3.2 N 17 24 9 13 1011.9 - 0.0
23/07:30pm 12.5 9.6 8.3 75 2.1 N 13 17 7 9 1012.1 - 0.0
23/07:00pm 12.8 10.5 9.0 78 1.9 NNW 11 15 6 8 1012.2 - 0.0
23/06:30pm 14.0 11.4 9.3 73 2.4 NW 13 17 7 9 1012.3 - 0.0
23/06:00pm 14.3 11.2 9.0 70 2.7 WNW 15 20 8 11 1012.2 1012.1 0.0
23/05:30pm 14.5 11.4 9.0 69 2.8 WNW 15 20 8 11 1012.3 - 0.0
23/05:00pm 15.2 11.4 9.0 66 3.2 WNW 19 28 10 15 1012.3 - 0.0
23/04:30pm 15.3 10.4 8.6 64 3.4 W 24 35 13 19 1012.5 - 0.0
23/04:00pm 15.7 11.0 9.1 65 3.4 W 24 32 13 17 1012.7 - 0.0
23/03:30pm 15.6 11.2 7.6 59 4.0 WNW 20 32 11 17 1012.8 - 0.0
23/03:00pm 16.1 11.2 8.5 60 3.9 W 24 33 13 18 1013.0 1012.9 0.0
23/02:30pm 16.0 12.1 8.8 62 3.7 WNW 19 30 10 16 1013.2 - 0.0
23/02:00pm 15.5 11.3 8.2 62 3.7 WNW 20 30 11 16 1013.6 - 0.0
23/01:30pm 15.8 11.7 8.8 63 3.6 WNW 20 28 11 15 1013.9 - 0.0
23/01:00pm 15.2 11.7 8.7 65 3.3 WNW 17 22 9 12 1014.0 - 0.0
23/12:30pm 14.4 10.4 8.2 66 3.1 NNW 19 30 10 16 1014.6 - 0.0
23/12:00pm 14.1 10.7 9.0 71 2.6 NNW 17 24 9 13 1015.3 1015.3 0.0
23/11:30am 14.7 10.9 9.2 69 2.8 NNW 19 32 10 17 1015.9 - 0.0
23/11:00am 15.3 12.3 9.1 66 3.2 NW 15 22 8 12 1016.1 - 0.0
23/10:30am 15.0 11.5 8.7 66 3.2 NNW 17 28 9 15 1016.4 - 0.0
23/10:00am 14.2 12.1 9.8 75 2.3 NW 11 19 6 10 1016.5 - 0.0
23/09:30am 13.5 10.1 9.2 75 2.2 N 17 28 9 15 1016.4 - 0.0
23/09:00am 13.0 9.6 9.3 78 1.9 N 17 22 9 12 1016.6 1016.5 13.6
23/08:30am 12.0 8.2 9.0 82 1.5 N 19 24 10 13 1016.5 - 1.0
23/08:00am 10.6 6.7 8.6 87 1.0 N 19 22 10 12 1016.4 - 1.0
23/07:30am 10.4 6.9 8.6 89 0.9 N 17 24 9 13 1016.4 - 1.0
23/07:00am 10.3 6.4 8.5 89 0.9 NNW 19 24 10 13 1016.2 - 1.0
23/06:30am 10.1 6.2 8.5 90 0.8 N 19 22 10 12 1016.1 - 1.0
23/06:00am 10.1 6.5 8.5 90 0.8 N 17 24 9 13 1016.1 1016.0 1.0
23/05:30am 10.1 6.2 8.5 90 0.8 N 19 22 10 12 1016.1 - 0.8
23/05:00am 10.0 6.4 8.4 90 0.8 N 17 22 9 12 1015.9 - 0.8
23/04:30am 10.0 6.4 8.4 90 0.8 NNW 17 19 9 10 1016.0 - 0.8
23/04:00am 9.8 6.5 8.2 90 0.8 N 15 17 8 9 1015.7 - 0.8
23/03:30am 9.9 6.7 8.5 91 0.7 N 15 19 8 10 1015.9 - 0.8
23/03:00am 10.0 6.4 8.4 90 0.8 NNW 17 19 9 10 1016.0 1015.9 0.8
23/02:30am 10.1 6.5 8.5 90 0.8 N 17 20 9 11 1016.2 - 0.8
23/02:00am 10.2 7.0 8.6 90 0.8 NNW 15 19 8 10 1016.6 - 0.8
23/01:30am 10.2 7.0 8.6 90 0.8 NNW 15 17 8 9 1016.9 - 0.8
23/01:00am 9.9 6.3 8.5 91 0.7 N 17 19 9 10 1017.1 - 0.8
23/12:30am 10.0 6.5 8.6 91 0.7 N 17 19 9 10 1017.2 - 0.8
23/12:00am 10.7 8.2 9.7 93 0.5 N 13 17 7 9 1017.3 1017.2 0.8
 
Date/Time
EST
Temp
°C
App
Temp
°C
Dew
Point
Rel
Hum
%
Delta-T
°C
Wind Press
QNH
hPa
Press
MSL
hPa
Rain
since 9 am
mm
Dir
 
Spd
km/h
Gust
km/h
Spd
kts
Gust
kts
22/11:30pm 11.9 10.4 10.5 91 0.7 NNW 9 13 5 7 1017.7 - 0.8
22/11:00pm 12.6 9.2 11.1 91 0.8 WNW 20 28 11 15 1018.0 - 0.6
22/10:30pm 10.6 7.3 8.1 84 1.2 N 15 17 8 9 1017.8 - 0.4
22/10:00pm 10.8 7.5 8.1 83 1.3 NNW 15 19 8 10 1017.8 - 0.4
22/09:30pm 11.3 8.2 8.7 84 1.3 NNW 15 17 8 9 1017.7 - 0.4
22/09:00pm 12.2 9.1 8.8 80 1.7 NNW 15 19 8 10 1017.6 1017.5 0.4
22/08:30pm 11.9 8.7 8.5 80 1.7 NNW 15 17 8 9 1017.4 - 0.4
22/08:00pm 12.5 9.7 8.5 76 2.0 N 13 17 7 9 1017.4 - 0.4
22/07:30pm 13.9 11.0 8.3 69 2.8 WNW 13 19 7 10 1017.2 - 0.4
22/07:00pm 14.1 10.8 8.1 67 3.0 W 15 20 8 11 1016.9 - 0.4
22/06:30pm 14.1 10.4 7.9 66 3.1 W 17 24 9 13 1016.6 - 0.4
22/06:00pm 14.0 10.4 8.2 68 2.9 W 17 22 9 12 1016.3 1016.2 0.4
22/05:30pm 14.3 10.7 8.3 67 3.0 W 17 22 9 12 1016.1 - 0.4
22/05:00pm 14.8 11.1 7.8 63 3.5 W 17 22 9 12 1015.8 - 0.4
22/04:30pm 14.9 11.8 8.8 67 3.1 W 15 20 8 11 1015.7 - 0.4
22/04:00pm 15.3 11.9 9.1 66 3.2 W 17 24 9 13 1015.4 - 0.4
22/03:30pm 15.3 12.0 9.5 68 3.0 W 17 26 9 14 1015.2 - 0.4
22/03:00pm 15.6 11.7 9.4 66 3.2 W 20 28 11 15 1015.1 1015.1 0.4
22/02:30pm 15.0 11.2 9.2 68 3.0 W 19 24 10 13 1014.9 - 0.4
22/02:00pm 15.7 12.5 10.0 69 3.0 W 17 22 9 12 1014.8 - 0.4
22/01:30pm 15.4 11.8 9.8 69 2.9 W 19 26 10 14 1014.8 - 0.4
22/01:00pm 15.4 12.2 10.1 70 2.8 WSW 17 26 9 14 1015.0 - 0.4
22/12:30pm 15.4 12.4 10.5 72 2.6 WSW 17 24 9 13 1015.0 - 0.4
22/12:00pm 15.4 11.9 10.9 74 2.4 WSW 20 28 11 15 1015.1 1015.1 0.4
22/11:30am 14.9 11.3 10.7 76 2.2 WSW 20 28 11 15 1015.0 - 0.4
22/11:00am 14.5 10.7 11.1 80 1.8 SW 22 32 12 17 1014.8 - 0.4
22/10:30am 14.2 10.3 12.0 87 1.2 SW 24 32 13 17 1014.6 - 0.4
22/10:00am 14.4 10.9 13.3 93 0.6 SW 24 35 13 19 1014.3 - 0.4
22/09:30am 14.3 10.7 13.2 93 0.6 WSW 24 33 13 18 1013.9 - 0.4
22/09:00am 14.9 12.3 13.8 93 0.6 WSW 20 32 11 17 1013.6 1013.5 13.6
22/08:30am 14.3 11.5 13.2 93 0.6 NW 20 30 11 16 1013.3 - 13.6
22/08:00am 14.0 10.0 12.9 93 0.6 NW 26 67 14 36 1012.9 - 13.6
22/07:54am 14.1 10.0 12.8 92 0.7 NW 26 67 14 36 1012.7 - 13.6
22/07:53am 14.1 10.0 12.8 92 0.7 NW 26 67 14 36 1012.7 - 13.6
22/07:30am 14.0 9.4 12.3 89 0.9 NNW 28 46 15 25 1012.0 - 13.6
22/07:18am 14.0 8.6 12.3 89 0.9 NNW 32 50 17 27 1011.5 - 13.4
22/07:17am 14.0 8.6 12.3 89 0.9 NNW 32 50 17 27 1011.5 - 13.4
22/07:00am 14.1 8.5 12.1 88 1.1 NNW 33 50 18 27 1011.2 - 13.4
22/06:38am 14.6 8.5 11.6 82 1.6 NNW 35 54 19 29 1010.9 - 13.4
22/06:37am 14.6 8.8 11.6 82 1.6 NNW 33 54 18 29 1010.9 - 13.4
22/06:30am 14.5 7.9 11.5 82 1.6 NNW 37 52 20 28 1010.8 - 13.4
22/06:07am 14.3 8.7 11.5 83 1.5 NNW 32 50 17 27 1010.7 - 13.4
22/06:06am 14.3 8.7 11.5 83 1.5 NNW 32 50 17 27 1010.7 - 13.4
22/06:00am 14.1 8.9 11.5 84 1.4 NNW 30 43 16 23 1010.8 1010.7 13.4
22/05:33am 13.7 8.5 11.7 88 1.1 N 30 48 16 26 1009.8 - 13.4
22/05:31am 13.8 8.6 11.6 86 1.2 N 30 48 16 26 1009.8 - 13.4
22/05:30am 13.9 8.3 11.5 85 1.3 N 32 48 17 26 1010.1 - 13.4
22/05:04am 13.5 8.2 11.4 87 1.1 NNW 30 48 16 26 1011.3 - 12.8
22/05:03am 13.5 8.2 11.4 87 1.1 NNW 30 48 16 26 1011.3 - 12.8
22/05:00am 13.4 8.1 11.3 87 1.1 NNW 30 41 16 22 1011.0 - 12.8
22/04:30am 12.6 7.6 10.9 89 0.9 N 28 43 15 23 1011.2 - 10.6
22/04:15am 12.9 7.6 11.2 89 0.9 NNW 30 48 16 26 1011.7 - 10.2
22/04:14am 12.9 7.6 11.2 89 0.9 NNW 30 48 16 26 1011.7 - 10.2
22/04:00am 13.5 9.4 11.6 88 1.0 NW 24 37 13 20 1011.5 - 9.6
22/03:30am 14.6 8.4 9.4 71 2.7 N 32 43 17 23 1010.3 - 7.6
22/03:01am 15.0 8.9 9.8 71 2.7 N 32 52 17 28 1010.1 - 7.6
22/03:00am 14.9 9.2 9.9 72 2.6 N 30 48 16 26 1010.0 1009.9 7.6
22/02:30am 14.6 7.7 10.4 76 2.2 N 37 52 20 28 1009.6 - 7.6
22/02:00am 15.4 9.3 10.5 72 2.6 N 33 54 18 29 1009.9 - 7.6
22/01:34am 15.8 9.4 10.7 71 2.7 N 35 54 19 29 1010.1 - 7.6
22/01:30am 15.7 9.3 10.6 71 2.7 N 35 50 19 27 1010.1 - 7.6
22/01:17am 15.6 8.2 9.7 68 3.1 N 39 57 21 31 1009.9 - 7.6
22/01:16am 15.6 8.2 9.7 68 3.1 N 39 57 21 31 1009.9 - 7.6
22/01:00am 15.5 8.0 9.3 66 3.2 N 39 54 21 29 1010.0 - 7.6
22/12:30am 15.4 8.0 9.9 70 2.9 N 39 63 21 34 1010.3 - 7.6
22/12:00am 16.1 8.6 9.6 65 3.4 N 39 57 21 31 1009.9 1009.8 7.4
 
Date/Time
EST
Temp
°C
App
Temp
°C
Dew
Point
Rel
Hum
%
Delta-T
°C
Wind Press
QNH
hPa
Press
MSL
hPa
Rain
since 9 am
mm
Dir
 
Spd
km/h
Gust
km/h
Spd
kts
Gust
kts
21/11:52pm 16.1 7.9 9.8 66 3.3 N 43 65 23 35 1009.7 - 7.4
21/11:38pm 15.8 10.7 10.5 71 2.8 N 28 46 15 25 1009.5 - 7.4
21/11:37pm 15.8 10.7 10.5 71 2.8 N 28 46 15 25 1009.5 - 7.4
21/11:30pm 15.2 10.7 11.3 77 2.1 N 26 37 14 20 1009.8 - 7.4
21/11:22pm 15.1 9.8 11.4 78 2.0 N 30 48 16 26 1009.9 - 7.4
21/11:00pm 14.8 8.7 11.7 82 1.7 N 35 48 19 26 1010.8 - 7.4
21/10:51pm 14.7 9.3 12.1 84 1.4 N 32 50 17 27 1011.0 - 7.4
21/10:50pm 14.7 9.3 12.1 84 1.4 N 32 50 17 27 1011.0 - 7.4
21/10:30pm 14.9 11.2 12.7 87 1.2 N 24 35 13 19 1012.5 - 6.6
21/10:00pm 14.8 10.5 12.2 84 1.4 NNW 26 37 14 20 1012.3 - 4.8
21/09:30pm 15.4 11.5 12.1 81 1.8 NW 24 39 13 21 1013.0 - 3.2
21/09:00pm 16.4 11.6 10.2 66 3.3 NW 26 44 14 24 1012.7 1012.6 2.6
21/08:30pm 19.5 12.5 5.8 40 6.8 NNW 32 54 17 29 1011.0 - 2.2
21/08:12pm 19.7 13.4 5.8 40 6.9 N 28 46 15 25 1010.4 - 2.2
21/08:11pm 19.7 13.4 5.8 40 6.9 N 28 46 15 25 1010.4 - 2.2
21/08:00pm 20.0 14.1 5.7 39 7.1 NNW 26 39 14 21 1010.3 - 2.2
21/07:59pm 20.1 13.8 5.6 38 7.2 NNW 28 39 15 21 1010.3 - 2.2
21/07:31pm 20.5 12.5 5.7 38 7.4 N 37 56 20 30 1009.7 - 2.2
21/07:30pm 20.6 12.1 5.2 36 7.6 N 39 56 21 30 1009.6 - 2.2
21/07:00pm 20.6 12.6 5.5 37 7.5 N 37 59 20 32 1009.6 - 2.2
21/06:33pm 20.5 12.1 5.7 38 7.4 N 39 57 21 31 1009.4 - 2.2
21/06:30pm 20.4 12.0 5.8 38 7.3 N 39 52 21 28 1009.4 - 2.2

Other Formats:

Comma delimited format used in spreadsheet applications
http://www.bom.gov.au/fwo/IDV60801/IDV60801.94842.axf

JavaScript Object Notation format (JSON) in row-major order
http://www.bom.gov.au/fwo/IDV60801/IDV60801.94842.json